sensor_id;sensor_type;location;lat;lon;timestamp;temperature;humidity
44513;DHT22;30219;50.588;9.504;2023-04-24T00:02:11;11.40;99.90
44513;DHT22;30219;50.588;9.504;2023-04-24T00:04:38;11.40;99.90
44513;DHT22;30219;50.588;9.504;2023-04-24T00:07:06;11.40;99.90
44513;DHT22;30219;50.588;9.504;2023-04-24T00:09:32;11.40;99.90
44513;DHT22;30219;50.588;9.504;2023-04-24T00:11:58;11.30;99.90
44513;DHT22;30219;50.588;9.504;2023-04-24T00:14:24;11.40;99.90
44513;DHT22;30219;50.588;9.504;2023-04-24T00:16:49;11.40;99.90
44513;DHT22;30219;50.588;9.504;2023-04-24T00:19:15;11.50;99.90
44513;DHT22;30219;50.588;9.504;2023-04-24T00:21:40;11.50;99.90
44513;DHT22;30219;50.588;9.504;2023-04-24T00:24:06;11.50;99.90
44513;DHT22;30219;50.588;9.504;2023-04-24T00:26:34;11.50;99.90
44513;DHT22;30219;50.588;9.504;2023-04-24T00:28:59;11.40;99.90
44513;DHT22;30219;50.588;9.504;2023-04-24T00:31:25;11.40;99.90
44513;DHT22;30219;50.588;9.504;2023-04-24T00:33:50;11.40;99.90
44513;DHT22;30219;50.588;9.504;2023-04-24T00:36:16;11.40;99.90
44513;DHT22;30219;50.588;9.504;2023-04-24T00:38:41;11.40;99.90
44513;DHT22;30219;50.588;9.504;2023-04-24T00:41:07;11.40;99.90
44513;DHT22;30219;50.588;9.504;2023-04-24T00:43:32;11.40;99.90
44513;DHT22;30219;50.588;9.504;2023-04-24T00:45:58;11.40;99.90
44513;DHT22;30219;50.588;9.504;2023-04-24T00:48:24;11.40;99.90
44513;DHT22;30219;50.588;9.504;2023-04-24T00:50:50;11.40;99.90
44513;DHT22;30219;50.588;9.504;2023-04-24T00:53:15;11.50;99.90
44513;DHT22;30219;50.588;9.504;2023-04-24T00:55:41;11.50;99.90
44513;DHT22;30219;50.588;9.504;2023-04-24T00:58:06;11.50;99.90
44513;DHT22;30219;50.588;9.504;2023-04-24T01:00:32;11.50;99.90
44513;DHT22;30219;50.588;9.504;2023-04-24T01:02:59;11.50;99.90
44513;DHT22;30219;50.588;9.504;2023-04-24T01:05:27;11.50;99.90
44513;DHT22;30219;50.588;9.504;2023-04-24T01:07:52;11.40;99.90
44513;DHT22;30219;50.588;9.504;2023-04-24T01:10:18;11.40;99.90
44513;DHT22;30219;50.588;9.504;2023-04-24T01:12:45;11.30;99.90
44513;DHT22;30219;50.588;9.504;2023-04-24T01:15:11;11.30;99.90
44513;DHT22;30219;50.588;9.504;2023-04-24T01:17:37;11.40;99.90
44513;DHT22;30219;50.588;9.504;2023-04-24T01:20:03;11.40;99.90
44513;DHT22;30219;50.588;9.504;2023-04-24T01:22:30;11.30;99.90
44513;DHT22;30219;50.588;9.504;2023-04-24T01:24:56;11.30;99.90
44513;DHT22;30219;50.588;9.504;2023-04-24T01:27:21;11.20;99.90
44513;DHT22;30219;50.588;9.504;2023-04-24T01:29:47;11.10;99.90
44513;DHT22;30219;50.588;9.504;2023-04-24T01:32:14;11.20;99.90
44513;DHT22;30219;50.588;9.504;2023-04-24T01:34:40;11.20;99.90
44513;DHT22;30219;50.588;9.504;2023-04-24T01:37:06;11.20;99.90
44513;DHT22;30219;50.588;9.504;2023-04-24T01:39:31;11.10;99.90
44513;DHT22;30219;50.588;9.504;2023-04-24T01:41:59;11.00;99.90
44513;DHT22;30219;50.588;9.504;2023-04-24T01:44:25;11.10;99.90
44513;DHT22;30219;50.588;9.504;2023-04-24T01:46:51;11.10;99.90
44513;DHT22;30219;50.588;9.504;2023-04-24T01:49:20;11.10;99.90
44513;DHT22;30219;50.588;9.504;2023-04-24T01:51:45;11.10;99.90
44513;DHT22;30219;50.588;9.504;2023-04-24T01:54:12;11.10;99.90
44513;DHT22;30219;50.588;9.504;2023-04-24T01:56:39;11.10;99.90
44513;DHT22;30219;50.588;9.504;2023-04-24T01:59:05;11.10;99.90
44513;DHT22;30219;50.588;9.504;2023-04-24T02:01:34;11.10;99.90
44513;DHT22;30219;50.588;9.504;2023-04-24T02:04:01;11.10;99.90
44513;DHT22;30219;50.588;9.504;2023-04-24T02:06:27;11.10;99.90
44513;DHT22;30219;50.588;9.504;2023-04-24T02:08:52;11.10;99.90
44513;DHT22;30219;50.588;9.504;2023-04-24T02:11:18;11.20;99.90
44513;DHT22;30219;50.588;9.504;2023-04-24T02:13:44;11.20;99.90
44513;DHT22;30219;50.588;9.504;2023-04-24T02:16:09;11.10;99.90
44513;DHT22;30219;50.588;9.504;2023-04-24T02:18:35;11.10;99.90
44513;DHT22;30219;50.588;9.504;2023-04-24T02:21:00;11.00;99.90
44513;DHT22;30219;50.588;9.504;2023-04-24T02:23:26;11.10;99.90
44513;DHT22;30219;50.588;9.504;2023-04-24T02:25:52;11.10;99.90
44513;DHT22;30219;50.588;9.504;2023-04-24T02:28:18;11.10;99.90
44513;DHT22;30219;50.588;9.504;2023-04-24T02:30:44;11.10;99.90
44513;DHT22;30219;50.588;9.504;2023-04-24T02:33:10;11.00;99.90
44513;DHT22;30219;50.588;9.504;2023-04-24T02:35:36;11.00;99.90
44513;DHT22;30219;50.588;9.504;2023-04-24T02:38:02;10.90;99.90
44513;DHT22;30219;50.588;9.504;2023-04-24T02:40:28;10.90;99.90
44513;DHT22;30219;50.588;9.504;2023-04-24T02:42:54;11.00;99.90
44513;DHT22;30219;50.588;9.504;2023-04-24T02:45:19;11.00;99.90
44513;DHT22;30219;50.588;9.504;2023-04-24T02:47:45;10.90;99.90
44513;DHT22;30219;50.588;9.504;2023-04-24T02:50:10;11.00;99.90
44513;DHT22;30219;50.588;9.504;2023-04-24T02:52:35;10.90;99.90
44513;DHT22;30219;50.588;9.504;2023-04-24T02:55:01;10.90;99.90
44513;DHT22;30219;50.588;9.504;2023-04-24T02:57:26;11.00;99.90
44513;DHT22;30219;50.588;9.504;2023-04-24T02:59:52;10.90;99.90
44513;DHT22;30219;50.588;9.504;2023-04-24T03:02:17;10.90;99.90
44513;DHT22;30219;50.588;9.504;2023-04-24T03:04:43;11.00;99.90
44513;DHT22;30219;50.588;9.504;2023-04-24T03:07:08;10.90;99.90
44513;DHT22;30219;50.588;9.504;2023-04-24T03:09:34;10.80;99.90
44513;DHT22;30219;50.588;9.504;2023-04-24T03:11:59;10.90;99.90
44513;DHT22;30219;50.588;9.504;2023-04-24T03:14:25;10.90;99.90
44513;DHT22;30219;50.588;9.504;2023-04-24T03:16:51;10.80;99.90
44513;DHT22;30219;50.588;9.504;2023-04-24T03:19:16;10.70;99.90
44513;DHT22;30219;50.588;9.504;2023-04-24T03:21:42;10.80;99.90
44513;DHT22;30219;50.588;9.504;2023-04-24T03:24:08;10.70;99.90
44513;DHT22;30219;50.588;9.504;2023-04-24T03:26:34;10.70;99.90
44513;DHT22;30219;50.588;9.504;2023-04-24T03:29:00;10.70;99.90
44513;DHT22;30219;50.588;9.504;2023-04-24T03:31:25;10.70;99.90
44513;DHT22;30219;50.588;9.504;2023-04-24T03:33:51;10.80;99.90
44513;DHT22;30219;50.588;9.504;2023-04-24T03:36:16;10.80;99.90
44513;DHT22;30219;50.588;9.504;2023-04-24T03:38:42;10.70;99.90
44513;DHT22;30219;50.588;9.504;2023-04-24T03:41:08;10.60;99.90
44513;DHT22;30219;50.588;9.504;2023-04-24T03:43:33;10.50;99.90
44513;DHT22;30219;50.588;9.504;2023-04-24T03:46:00;10.60;99.90
44513;DHT22;30219;50.588;9.504;2023-04-24T03:48:25;10.50;99.90
44513;DHT22;30219;50.588;9.504;2023-04-24T03:50:51;10.50;99.90
44513;DHT22;30219;50.588;9.504;2023-04-24T03:53:16;10.40;99.90
44513;DHT22;30219;50.588;9.504;2023-04-24T03:55:42;10.40;99.90
44513;DHT22;30219;50.588;9.504;2023-04-24T03:58:07;10.40;99.90
44513;DHT22;30219;50.588;9.504;2023-04-24T04:00:33;10.30;99.90
44513;DHT22;30219;50.588;9.504;2023-04-24T04:02:59;10.20;99.90
44513;DHT22;30219;50.588;9.504;2023-04-24T04:05:25;10.30;99.90
44513;DHT22;30219;50.588;9.504;2023-04-24T04:07:50;10.30;99.90
44513;DHT22;30219;50.588;9.504;2023-04-24T04:10:16;10.40;99.90
44513;DHT22;30219;50.588;9.504;2023-04-24T04:12:42;10.40;99.90
44513;DHT22;30219;50.588;9.504;2023-04-24T04:15:08;10.40;99.90
44513;DHT22;30219;50.588;9.504;2023-04-24T04:17:33;10.40;99.90
44513;DHT22;30219;50.588;9.504;2023-04-24T04:19:59;10.30;99.90
44513;DHT22;30219;50.588;9.504;2023-04-24T04:22:25;10.30;99.90
44513;DHT22;30219;50.588;9.504;2023-04-24T04:24:50;10.20;99.90
44513;DHT22;30219;50.588;9.504;2023-04-24T04:27:16;10.20;99.90
44513;DHT22;30219;50.588;9.504;2023-04-24T04:29:41;10.20;99.90
44513;DHT22;30219;50.588;9.504;2023-04-24T04:32:07;10.20;99.90
44513;DHT22;30219;50.588;9.504;2023-04-24T04:34:32;10.20;99.90
44513;DHT22;30219;50.588;9.504;2023-04-24T04:36:58;10.30;99.90
44513;DHT22;30219;50.588;9.504;2023-04-24T04:39:26;10.20;99.90
44513;DHT22;30219;50.588;9.504;2023-04-24T04:41:53;10.20;99.90
44513;DHT22;30219;50.588;9.504;2023-04-24T04:44:19;10.20;99.90
44513;DHT22;30219;50.588;9.504;2023-04-24T04:46:44;10.20;99.90
44513;DHT22;30219;50.588;9.504;2023-04-24T04:49:10;10.10;99.90
44513;DHT22;30219;50.588;9.504;2023-04-24T04:51:36;10.10;99.90
44513;DHT22;30219;50.588;9.504;2023-04-24T04:54:01;10.10;99.90
44513;DHT22;30219;50.588;9.504;2023-04-24T04:56:27;10.10;99.90
44513;DHT22;30219;50.588;9.504;2023-04-24T04:58:52;10.10;99.90
44513;DHT22;30219;50.588;9.504;2023-04-24T05:01:18;10.10;99.90
44513;DHT22;30219;50.588;9.504;2023-04-24T05:03:44;10.10;99.90
44513;DHT22;30219;50.588;9.504;2023-04-24T05:06:09;10.10;99.90
44513;DHT22;30219;50.588;9.504;2023-04-24T05:08:35;10.00;99.90
44513;DHT22;30219;50.588;9.504;2023-04-24T05:11:01;10.10;99.90
44513;DHT22;30219;50.588;9.504;2023-04-24T05:13:26;10.00;99.90
44513;DHT22;30219;50.588;9.504;2023-04-24T05:15:52;9.90;99.90
44513;DHT22;30219;50.588;9.504;2023-04-24T05:18:17;10.00;99.90
44513;DHT22;30219;50.588;9.504;2023-04-24T05:20:43;10.00;99.90
44513;DHT22;30219;50.588;9.504;2023-04-24T05:23:11;10.00;99.90
44513;DHT22;30219;50.588;9.504;2023-04-24T05:25:37;10.00;99.90
44513;DHT22;30219;50.588;9.504;2023-04-24T05:28:03;10.10;99.90
44513;DHT22;30219;50.588;9.504;2023-04-24T05:30:29;10.10;99.90
44513;DHT22;30219;50.588;9.504;2023-04-24T05:32:54;10.10;99.90
44513;DHT22;30219;50.588;9.504;2023-04-24T05:35:20;10.00;99.90
44513;DHT22;30219;50.588;9.504;2023-04-24T05:37:45;10.00;99.90
44513;DHT22;30219;50.588;9.504;2023-04-24T05:40:11;10.00;99.90
44513;DHT22;30219;50.588;9.504;2023-04-24T05:42:37;9.80;99.90
44513;DHT22;30219;50.588;9.504;2023-04-24T05:45:02;10.00;99.90
44513;DHT22;30219;50.588;9.504;2023-04-24T05:47:28;10.20;99.90
44513;DHT22;30219;50.588;9.504;2023-04-24T05:49:54;10.50;99.90
44513;DHT22;30219;50.588;9.504;2023-04-24T05:52:19;10.70;99.90
44513;DHT22;30219;50.588;9.504;2023-04-24T05:54:45;10.90;99.90
44513;DHT22;30219;50.588;9.504;2023-04-24T05:57:10;11.10;99.90
44513;DHT22;30219;50.588;9.504;2023-04-24T05:59:36;11.30;99.90
44513;DHT22;30219;50.588;9.504;2023-04-24T06:02:03;11.50;99.90
44513;DHT22;30219;50.588;9.504;2023-04-24T06:04:28;11.60;99.90
44513;DHT22;30219;50.588;9.504;2023-04-24T06:06:53;12.00;99.90
44513;DHT22;30219;50.588;9.504;2023-04-24T06:09:24;12.20;99.90
44513;DHT22;30219;50.588;9.504;2023-04-24T06:11:50;12.50;99.90
44513;DHT22;30219;50.588;9.504;2023-04-24T06:14:18;12.50;99.90
44513;DHT22;30219;50.588;9.504;2023-04-24T06:16:43;12.30;99.90
44513;DHT22;30219;50.588;9.504;2023-04-24T06:19:09;12.40;99.90
44513;DHT22;30219;50.588;9.504;2023-04-24T06:21:34;12.20;99.90
44513;DHT22;30219;50.588;9.504;2023-04-24T06:24:00;12.60;99.90
44513;DHT22;30219;50.588;9.504;2023-04-24T06:26:25;12.90;99.90
44513;DHT22;30219;50.588;9.504;2023-04-24T06:28:52;13.30;99.90
44513;DHT22;30219;50.588;9.504;2023-04-24T06:31:19;13.70;99.90
44513;DHT22;30219;50.588;9.504;2023-04-24T06:33:45;13.50;99.90
44513;DHT22;30219;50.588;9.504;2023-04-24T06:36:10;13.50;99.90
44513;DHT22;30219;50.588;9.504;2023-04-24T06:38:36;13.60;99.90
44513;DHT22;30219;50.588;9.504;2023-04-24T06:41:01;13.60;99.90
44513;DHT22;30219;50.588;9.504;2023-04-24T06:43:27;13.90;99.90
44513;DHT22;30219;50.588;9.504;2023-04-24T06:45:52;13.60;99.90
44513;DHT22;30219;50.588;9.504;2023-04-24T06:48:18;13.10;99.90
44513;DHT22;30219;50.588;9.504;2023-04-24T06:50:43;13.00;99.90
44513;DHT22;30219;50.588;9.504;2023-04-24T06:53:08;12.90;99.90
44513;DHT22;30219;50.588;9.504;2023-04-24T06:55:36;13.40;99.90
44513;DHT22;30219;50.588;9.504;2023-04-24T06:58:01;14.10;99.90
44513;DHT22;30219;50.588;9.504;2023-04-24T07:00:27;13.60;99.90
44513;DHT22;30219;50.588;9.504;2023-04-24T07:02:52;13.70;99.90
44513;DHT22;30219;50.588;9.504;2023-04-24T07:05:18;13.60;99.90
44513;DHT22;30219;50.588;9.504;2023-04-24T07:07:46;13.10;99.90
44513;DHT22;30219;50.588;9.504;2023-04-24T07:10:11;13.20;99.90
44513;DHT22;30219;50.588;9.504;2023-04-24T07:12:38;13.50;99.90
44513;DHT22;30219;50.588;9.504;2023-04-24T07:15:04;13.80;99.40
44513;DHT22;30219;50.588;9.504;2023-04-24T07:17:30;13.40;99.90
44513;DHT22;30219;50.588;9.504;2023-04-24T07:19:55;12.60;99.90
44513;DHT22;30219;50.588;9.504;2023-04-24T07:22:21;12.70;99.90
44513;DHT22;30219;50.588;9.504;2023-04-24T07:24:47;12.90;99.90
44513;DHT22;30219;50.588;9.504;2023-04-24T07:27:12;12.30;99.90
44513;DHT22;30219;50.588;9.504;2023-04-24T07:29:40;12.80;99.90
44513;DHT22;30219;50.588;9.504;2023-04-24T07:32:05;12.80;99.90
44513;DHT22;30219;50.588;9.504;2023-04-24T07:34:31;12.90;99.90
44513;DHT22;30219;50.588;9.504;2023-04-24T07:36:56;13.10;99.90
44513;DHT22;30219;50.588;9.504;2023-04-24T07:39:22;13.00;99.90
44513;DHT22;30219;50.588;9.504;2023-04-24T07:41:48;13.00;99.90
44513;DHT22;30219;50.588;9.504;2023-04-24T07:44:14;12.60;99.90
44513;DHT22;30219;50.588;9.504;2023-04-24T07:46:39;12.20;99.90
44513;DHT22;30219;50.588;9.504;2023-04-24T07:49:05;12.10;99.90
44513;DHT22;30219;50.588;9.504;2023-04-24T07:51:31;11.60;99.90
44513;DHT22;30219;50.588;9.504;2023-04-24T07:53:57;11.20;99.90
44513;DHT22;30219;50.588;9.504;2023-04-24T07:56:23;11.20;99.90
44513;DHT22;30219;50.588;9.504;2023-04-24T07:58:48;11.20;99.90
44513;DHT22;30219;50.588;9.504;2023-04-24T08:01:14;11.00;99.90
44513;DHT22;30219;50.588;9.504;2023-04-24T08:03:39;11.00;99.90
44513;DHT22;30219;50.588;9.504;2023-04-24T08:06:05;10.80;99.90
44513;DHT22;30219;50.588;9.504;2023-04-24T08:08:30;10.90;99.90
44513;DHT22;30219;50.588;9.504;2023-04-24T08:10:56;11.00;99.90
44513;DHT22;30219;50.588;9.504;2023-04-24T08:13:21;10.80;99.90
44513;DHT22;30219;50.588;9.504;2023-04-24T08:15:47;10.90;99.90
44513;DHT22;30219;50.588;9.504;2023-04-24T08:18:12;10.90;99.90
44513;DHT22;30219;50.588;9.504;2023-04-24T08:20:39;10.90;99.90
44513;DHT22;30219;50.588;9.504;2023-04-24T08:23:04;10.90;99.90
44513;DHT22;30219;50.588;9.504;2023-04-24T08:25:30;10.60;99.90
44513;DHT22;30219;50.588;9.504;2023-04-24T08:27:55;10.60;99.90
44513;DHT22;30219;50.588;9.504;2023-04-24T08:30:21;10.80;99.90
44513;DHT22;30219;50.588;9.504;2023-04-24T08:32:47;10.70;99.90
44513;DHT22;30219;50.588;9.504;2023-04-24T08:35:12;10.70;99.90
44513;DHT22;30219;50.588;9.504;2023-04-24T08:37:38;10.70;99.90
44513;DHT22;30219;50.588;9.504;2023-04-24T08:40:05;11.20;99.90
44513;DHT22;30219;50.588;9.504;2023-04-24T08:42:32;11.50;99.90
44513;DHT22;30219;50.588;9.504;2023-04-24T08:44:59;12.10;99.90
44513;DHT22;30219;50.588;9.504;2023-04-24T08:47:25;12.60;99.90
44513;DHT22;30219;50.588;9.504;2023-04-24T08:49:52;12.80;99.90
44513;DHT22;30219;50.588;9.504;2023-04-24T08:52:17;13.20;99.90
44513;DHT22;30219;50.588;9.504;2023-04-24T08:54:43;13.70;99.90
44513;DHT22;30219;50.588;9.504;2023-04-24T08:57:11;13.50;99.90
44513;DHT22;30219;50.588;9.504;2023-04-24T08:59:38;13.50;99.90
44513;DHT22;30219;50.588;9.504;2023-04-24T09:02:03;13.60;99.90
44513;DHT22;30219;50.588;9.504;2023-04-24T09:04:30;13.10;99.90
44513;DHT22;30219;50.588;9.504;2023-04-24T09:06:56;12.50;99.90
44513;DHT22;30219;50.588;9.504;2023-04-24T09:09:22;12.50;99.90
44513;DHT22;30219;50.588;9.504;2023-04-24T09:11:48;12.60;99.90
44513;DHT22;30219;50.588;9.504;2023-04-24T09:14:14;12.50;99.90
44513;DHT22;30219;50.588;9.504;2023-04-24T09:16:40;12.30;99.90
44513;DHT22;30219;50.588;9.504;2023-04-24T09:19:06;12.40;99.90
44513;DHT22;30219;50.588;9.504;2023-04-24T09:21:32;12.30;99.90
44513;DHT22;30219;50.588;9.504;2023-04-24T09:23:59;12.40;99.90
44513;DHT22;30219;50.588;9.504;2023-04-24T09:26:24;12.40;99.90
44513;DHT22;30219;50.588;9.504;2023-04-24T09:28:50;12.20;99.90
44513;DHT22;30219;50.588;9.504;2023-04-24T09:31:17;11.90;99.90
44513;DHT22;30219;50.588;9.504;2023-04-24T09:34:03;11.60;99.90
44513;DHT22;30219;50.588;9.504;2023-04-24T09:36:32;11.60;99.90
44513;DHT22;30219;50.588;9.504;2023-04-24T09:39:02;11.50;99.90
44513;DHT22;30219;50.588;9.504;2023-04-24T09:41:29;11.30;99.90
44513;DHT22;30219;50.588;9.504;2023-04-24T09:43:55;11.10;99.90
44513;DHT22;30219;50.588;9.504;2023-04-24T09:46:21;11.00;99.90
44513;DHT22;30219;50.588;9.504;2023-04-24T09:48:47;11.10;99.90
44513;DHT22;30219;50.588;9.504;2023-04-24T09:51:13;11.10;99.90
44513;DHT22;30219;50.588;9.504;2023-04-24T09:53:44;11.10;99.90
44513;DHT22;30219;50.588;9.504;2023-04-24T09:56:10;10.90;99.90
44513;DHT22;30219;50.588;9.504;2023-04-24T09:58:38;10.90;99.90
44513;DHT22;30219;50.588;9.504;2023-04-24T10:01:04;10.80;99.90
44513;DHT22;30219;50.588;9.504;2023-04-24T10:03:29;10.80;99.90
44513;DHT22;30219;50.588;9.504;2023-04-24T10:05:58;10.90;99.90
44513;DHT22;30219;50.588;9.504;2023-04-24T10:08:24;10.90;99.90
44513;DHT22;30219;50.588;9.504;2023-04-24T10:10:50;10.90;99.90
44513;DHT22;30219;50.588;9.504;2023-04-24T10:13:15;10.80;99.90
44513;DHT22;30219;50.588;9.504;2023-04-24T10:15:41;10.90;99.90
44513;DHT22;30219;50.588;9.504;2023-04-24T10:20:59;10.90;99.90
44513;DHT22;30219;50.588;9.504;2023-04-24T10:23:25;10.90;99.90
44513;DHT22;30219;50.588;9.504;2023-04-24T10:25:50;10.90;99.90
44513;DHT22;30219;50.588;9.504;2023-04-24T10:28:16;11.00;99.90
44513;DHT22;30219;50.588;9.504;2023-04-24T10:30:43;11.00;99.90
44513;DHT22;30219;50.588;9.504;2023-04-24T10:33:08;10.80;99.90
44513;DHT22;30219;50.588;9.504;2023-04-24T10:35:38;10.80;99.90
44513;DHT22;30219;50.588;9.504;2023-04-24T10:38:14;10.90;99.90
44513;DHT22;30219;50.588;9.504;2023-04-24T10:40:41;11.00;99.90
44513;DHT22;30219;50.588;9.504;2023-04-24T10:43:07;11.10;99.90
44513;DHT22;30219;50.588;9.504;2023-04-24T10:45:35;11.30;99.90
44513;DHT22;30219;50.588;9.504;2023-04-24T10:48:01;11.40;99.90
44513;DHT22;30219;50.588;9.504;2023-04-24T10:50:27;11.40;99.90
44513;DHT22;30219;50.588;9.504;2023-04-24T10:52:53;11.40;99.90
44513;DHT22;30219;50.588;9.504;2023-04-24T10:55:39;11.30;99.90
44513;DHT22;30219;50.588;9.504;2023-04-24T10:58:06;11.30;99.90
44513;DHT22;30219;50.588;9.504;2023-04-24T11:00:31;11.40;99.90
44513;DHT22;30219;50.588;9.504;2023-04-24T11:02:57;11.30;99.90
44513;DHT22;30219;50.588;9.504;2023-04-24T11:05:23;11.40;99.90
44513;DHT22;30219;50.588;9.504;2023-04-24T11:08:12;11.80;99.90
44513;DHT22;30219;50.588;9.504;2023-04-24T11:10:43;11.80;99.90
44513;DHT22;30219;50.588;9.504;2023-04-24T11:13:21;11.70;99.90
44513;DHT22;30219;50.588;9.504;2023-04-24T11:16:11;11.40;99.90
44513;DHT22;30219;50.588;9.504;2023-04-24T11:18:39;11.20;99.90
44513;DHT22;30219;50.588;9.504;2023-04-24T11:21:12;11.00;99.90
44513;DHT22;30219;50.588;9.504;2023-04-24T11:23:39;11.20;99.90
44513;DHT22;30219;50.588;9.504;2023-04-24T11:26:11;11.20;99.90
44513;DHT22;30219;50.588;9.504;2023-04-24T11:28:43;11.20;99.90
44513;DHT22;30219;50.588;9.504;2023-04-24T11:33:53;11.10;99.90
44513;DHT22;30219;50.588;9.504;2023-04-24T11:36:19;11.10;99.90
44513;DHT22;30219;50.588;9.504;2023-04-24T11:38:44;11.00;99.90
44513;DHT22;30219;50.588;9.504;2023-04-24T11:41:10;11.10;99.90
44513;DHT22;30219;50.588;9.504;2023-04-24T11:43:36;11.00;99.90
44513;DHT22;30219;50.588;9.504;2023-04-24T11:46:02;10.60;99.90
44513;DHT22;30219;50.588;9.504;2023-04-24T11:48:28;10.30;99.90
44513;DHT22;30219;50.588;9.504;2023-04-24T11:50:53;10.20;99.90
44513;DHT22;30219;50.588;9.504;2023-04-24T11:53:19;10.30;99.90
44513;DHT22;30219;50.588;9.504;2023-04-24T11:55:46;10.50;99.90
44513;DHT22;30219;50.588;9.504;2023-04-24T11:58:12;10.50;99.90
44513;DHT22;30219;50.588;9.504;2023-04-24T12:00:37;10.40;99.90
44513;DHT22;30219;50.588;9.504;2023-04-24T12:03:12;10.50;99.90
44513;DHT22;30219;50.588;9.504;2023-04-24T12:05:38;10.70;99.90
44513;DHT22;30219;50.588;9.504;2023-04-24T12:08:04;11.00;99.90
44513;DHT22;30219;50.588;9.504;2023-04-24T12:10:30;11.20;99.90
44513;DHT22;30219;50.588;9.504;2023-04-24T12:12:56;11.30;99.90
44513;DHT22;30219;50.588;9.504;2023-04-24T12:15:22;11.50;99.90
44513;DHT22;30219;50.588;9.504;2023-04-24T12:17:50;11.80;99.90
44513;DHT22;30219;50.588;9.504;2023-04-24T12:20:15;12.20;99.90
44513;DHT22;30219;50.588;9.504;2023-04-24T12:22:44;12.60;99.90
44513;DHT22;30219;50.588;9.504;2023-04-24T12:25:11;12.80;99.90
44513;DHT22;30219;50.588;9.504;2023-04-24T12:27:36;13.30;99.90
44513;DHT22;30219;50.588;9.504;2023-04-24T12:30:03;13.40;99.90
44513;DHT22;30219;50.588;9.504;2023-04-24T12:32:29;13.10;99.90
44513;DHT22;30219;50.588;9.504;2023-04-24T12:34:55;13.30;99.90
44513;DHT22;30219;50.588;9.504;2023-04-24T12:37:22;13.90;99.90
44513;DHT22;30219;50.588;9.504;2023-04-24T12:42:29;13.30;99.90
44513;DHT22;30219;50.588;9.504;2023-04-24T12:45:04;13.20;99.90
44513;DHT22;30219;50.588;9.504;2023-04-24T12:47:31;13.00;99.90
44513;DHT22;30219;50.588;9.504;2023-04-24T12:49:57;13.10;99.90
44513;DHT22;30219;50.588;9.504;2023-04-24T12:52:22;13.20;99.90
44513;DHT22;30219;50.588;9.504;2023-04-24T12:54:49;12.80;99.90
44513;DHT22;30219;50.588;9.504;2023-04-24T12:57:15;13.10;99.90
44513;DHT22;30219;50.588;9.504;2023-04-24T12:59:40;13.60;99.90
44513;DHT22;30219;50.588;9.504;2023-04-24T13:02:06;14.00;99.90
44513;DHT22;30219;50.588;9.504;2023-04-24T13:04:32;14.20;99.90
44513;DHT22;30219;50.588;9.504;2023-04-24T13:06:57;14.30;99.90
44513;DHT22;30219;50.588;9.504;2023-04-24T13:09:23;14.20;99.90
44513;DHT22;30219;50.588;9.504;2023-04-24T13:11:49;13.90;99.90
44513;DHT22;30219;50.588;9.504;2023-04-24T13:14:15;13.80;99.90
44513;DHT22;30219;50.588;9.504;2023-04-24T13:16:40;13.60;99.90
44513;DHT22;30219;50.588;9.504;2023-04-24T13:19:06;13.40;99.90
44513;DHT22;30219;50.588;9.504;2023-04-24T13:21:31;13.40;99.90
44513;DHT22;30219;50.588;9.504;2023-04-24T13:23:57;13.20;99.90
44513;DHT22;30219;50.588;9.504;2023-04-24T13:26:22;13.20;99.90
44513;DHT22;30219;50.588;9.504;2023-04-24T13:28:48;13.30;99.90
44513;DHT22;30219;50.588;9.504;2023-04-24T13:31:13;13.40;99.90
44513;DHT22;30219;50.588;9.504;2023-04-24T13:33:39;13.20;99.90
44513;DHT22;30219;50.588;9.504;2023-04-24T13:36:05;13.00;99.90
44513;DHT22;30219;50.588;9.504;2023-04-24T13:38:30;13.00;99.90
44513;DHT22;30219;50.588;9.504;2023-04-24T13:40:56;12.90;99.90
44513;DHT22;30219;50.588;9.504;2023-04-24T13:43:22;13.10;99.90
44513;DHT22;30219;50.588;9.504;2023-04-24T13:45:47;13.30;99.90
44513;DHT22;30219;50.588;9.504;2023-04-24T13:48:13;13.30;99.90
44513;DHT22;30219;50.588;9.504;2023-04-24T13:50:41;13.30;99.90
44513;DHT22;30219;50.588;9.504;2023-04-24T13:53:06;13.10;99.90
44513;DHT22;30219;50.588;9.504;2023-04-24T13:55:32;13.10;99.90
44513;DHT22;30219;50.588;9.504;2023-04-24T13:57:57;12.60;99.90
44513;DHT22;30219;50.588;9.504;2023-04-24T14:00:23;12.20;99.90
44513;DHT22;30219;50.588;9.504;2023-04-24T14:02:48;12.10;99.90
44513;DHT22;30219;50.588;9.504;2023-04-24T14:05:14;12.20;99.90
44513;DHT22;30219;50.588;9.504;2023-04-24T14:07:40;12.20;99.90
44513;DHT22;30219;50.588;9.504;2023-04-24T14:10:06;12.20;99.90
44513;DHT22;30219;50.588;9.504;2023-04-24T14:12:32;12.00;99.90
44513;DHT22;30219;50.588;9.504;2023-04-24T14:14:57;12.20;99.90
44513;DHT22;30219;50.588;9.504;2023-04-24T14:17:23;12.50;99.90
44513;DHT22;30219;50.588;9.504;2023-04-24T14:19:48;12.50;99.90
44513;DHT22;30219;50.588;9.504;2023-04-24T14:22:14;12.60;99.90
44513;DHT22;30219;50.588;9.504;2023-04-24T14:24:39;12.60;99.90
44513;DHT22;30219;50.588;9.504;2023-04-24T14:27:05;12.70;99.90
44513;DHT22;30219;50.588;9.504;2023-04-24T14:29:30;12.70;99.90
44513;DHT22;30219;50.588;9.504;2023-04-24T14:31:56;12.70;99.90
44513;DHT22;30219;50.588;9.504;2023-04-24T14:34:21;12.70;99.90
44513;DHT22;30219;50.588;9.504;2023-04-24T14:36:47;12.40;99.90
44513;DHT22;30219;50.588;9.504;2023-04-24T14:39:12;12.40;99.90
44513;DHT22;30219;50.588;9.504;2023-04-24T14:41:37;12.30;99.90
44513;DHT22;30219;50.588;9.504;2023-04-24T14:44:04;12.10;99.90
44513;DHT22;30219;50.588;9.504;2023-04-24T14:46:30;12.10;99.90
44513;DHT22;30219;50.588;9.504;2023-04-24T14:48:58;11.80;99.90
44513;DHT22;30219;50.588;9.504;2023-04-24T14:51:24;11.70;99.90
44513;DHT22;30219;50.588;9.504;2023-04-24T14:53:50;11.60;99.90
44513;DHT22;30219;50.588;9.504;2023-04-24T14:56:16;11.40;99.90
44513;DHT22;30219;50.588;9.504;2023-04-24T14:58:42;11.20;99.90
44513;DHT22;30219;50.588;9.504;2023-04-24T15:01:15;11.10;99.90
44513;DHT22;30219;50.588;9.504;2023-04-24T15:03:41;11.20;99.90
44513;DHT22;30219;50.588;9.504;2023-04-24T15:06:07;11.50;99.90
44513;DHT22;30219;50.588;9.504;2023-04-24T15:08:32;11.70;99.90
44513;DHT22;30219;50.588;9.504;2023-04-24T15:10:58;11.90;99.90
44513;DHT22;30219;50.588;9.504;2023-04-24T15:13:23;12.20;99.90
44513;DHT22;30219;50.588;9.504;2023-04-24T15:15:48;12.30;99.90
44513;DHT22;30219;50.588;9.504;2023-04-24T15:18:14;12.40;99.90
44513;DHT22;30219;50.588;9.504;2023-04-24T15:20:39;12.20;99.90
44513;DHT22;30219;50.588;9.504;2023-04-24T15:23:09;12.20;99.90
44513;DHT22;30219;50.588;9.504;2023-04-24T15:25:35;12.40;99.90
44513;DHT22;30219;50.588;9.504;2023-04-24T15:28:01;12.60;99.90
44513;DHT22;30219;50.588;9.504;2023-04-24T15:30:27;12.50;99.90
44513;DHT22;30219;50.588;9.504;2023-04-24T15:32:53;12.40;99.90